sensor_id;sensor_type;location;lat;lon;timestamp;P1;durP1;ratioP1;P2;durP2;ratioP2
870;SDS011;422;51.280;7.236;2023-09-18T00:01:39;9.07;;;8.10;;
870;SDS011;422;51.280;7.236;2023-09-18T00:04:05;10.13;;;8.20;;
870;SDS011;422;51.280;7.236;2023-09-18T00:06:32;10.00;;;8.30;;
870;SDS011;422;51.280;7.236;2023-09-18T00:09:01;10.60;;;8.80;;
870;SDS011;422;51.280;7.236;2023-09-18T00:11:29;10.00;;;8.33;;
870;SDS011;422;51.280;7.236;2023-09-18T00:13:56;9.90;;;8.00;;
870;SDS011;422;51.280;7.236;2023-09-18T00:16:23;9.10;;;7.93;;
870;SDS011;422;51.280;7.236;2023-09-18T00:18:52;11.50;;;8.40;;
870;SDS011;422;51.280;7.236;2023-09-18T00:21:19;10.03;;;9.03;;
870;SDS011;422;51.280;7.236;2023-09-18T00:23:46;8.87;;;7.60;;
870;SDS011;422;51.280;7.236;2023-09-18T00:26:15;9.40;;;8.40;;
870;SDS011;422;51.280;7.236;2023-09-18T00:28:43;9.20;;;8.20;;
870;SDS011;422;51.280;7.236;2023-09-18T00:31:10;10.63;;;9.50;;
870;SDS011;422;51.280;7.236;2023-09-18T00:33:37;9.17;;;7.87;;
870;SDS011;422;51.280;7.236;2023-09-18T00:36:04;9.43;;;7.83;;
870;SDS011;422;51.280;7.236;2023-09-18T00:38:31;9.40;;;8.50;;
870;SDS011;422;51.280;7.236;2023-09-18T00:41:02;9.97;;;8.97;;
870;SDS011;422;51.280;7.236;2023-09-18T00:43:30;8.80;;;7.90;;
870;SDS011;422;51.280;7.236;2023-09-18T00:45:58;12.53;;;8.53;;
870;SDS011;422;51.280;7.236;2023-09-18T00:48:26;13.60;;;9.20;;
870;SDS011;422;51.280;7.236;2023-09-18T00:50:53;11.40;;;9.03;;
870;SDS011;422;51.280;7.236;2023-09-18T00:53:22;11.93;;;8.20;;
870;SDS011;422;51.280;7.236;2023-09-18T00:55:53;8.23;;;7.27;;
870;SDS011;422;51.280;7.236;2023-09-18T00:58:22;9.63;;;7.90;;
870;SDS011;422;51.280;7.236;2023-09-18T01:00:51;9.00;;;8.00;;
870;SDS011;422;51.280;7.236;2023-09-18T01:03:18;10.80;;;7.60;;
870;SDS011;422;51.280;7.236;2023-09-18T01:05:47;11.87;;;7.30;;
870;SDS011;422;51.280;7.236;2023-09-18T01:08:15;9.37;;;7.70;;
870;SDS011;422;51.280;7.236;2023-09-18T01:10:44;10.37;;;7.60;;
870;SDS011;422;51.280;7.236;2023-09-18T01:13:21;8.40;;;6.87;;
870;SDS011;422;51.280;7.236;2023-09-18T01:15:56;10.27;;;7.70;;
870;SDS011;422;51.280;7.236;2023-09-18T01:18:29;8.43;;;7.57;;
870;SDS011;422;51.280;7.236;2023-09-18T01:20:56;9.67;;;7.10;;
870;SDS011;422;51.280;7.236;2023-09-18T01:23:25;10.60;;;7.30;;
870;SDS011;422;51.280;7.236;2023-09-18T01:25:52;10.70;;;6.27;;
870;SDS011;422;51.280;7.236;2023-09-18T01:28:19;10.13;;;7.13;;
870;SDS011;422;51.280;7.236;2023-09-18T01:30:46;9.67;;;7.30;;
870;SDS011;422;51.280;7.236;2023-09-18T01:33:13;14.70;;;7.60;;
870;SDS011;422;51.280;7.236;2023-09-18T01:35:42;8.23;;;7.10;;
870;SDS011;422;51.280;7.236;2023-09-18T01:38:11;6.50;;;5.87;;
870;SDS011;422;51.280;7.236;2023-09-18T01:40:40;11.43;;;7.17;;
870;SDS011;422;51.280;7.236;2023-09-18T01:43:08;8.23;;;5.93;;
870;SDS011;422;51.280;7.236;2023-09-18T01:45:36;8.97;;;7.03;;
870;SDS011;422;51.280;7.236;2023-09-18T01:48:04;9.80;;;6.70;;
870;SDS011;422;51.280;7.236;2023-09-18T01:50:32;10.73;;;6.70;;
870;SDS011;422;51.280;7.236;2023-09-18T01:52:59;11.90;;;6.93;;
870;SDS011;422;51.280;7.236;2023-09-18T01:55:27;8.27;;;6.57;;
870;SDS011;422;51.280;7.236;2023-09-18T01:57:56;10.17;;;6.60;;
870;SDS011;422;51.280;7.236;2023-09-18T02:00:23;10.57;;;6.60;;
870;SDS011;422;51.280;7.236;2023-09-18T02:02:50;6.77;;;6.00;;
870;SDS011;422;51.280;7.236;2023-09-18T02:05:18;7.67;;;6.00;;
870;SDS011;422;51.280;7.236;2023-09-18T02:07:45;7.40;;;6.17;;
870;SDS011;422;51.280;7.236;2023-09-18T02:10:12;7.10;;;6.30;;
870;SDS011;422;51.280;7.236;2023-09-18T02:12:39;7.67;;;6.50;;
870;SDS011;422;51.280;7.236;2023-09-18T02:15:08;6.73;;;5.80;;
870;SDS011;422;51.280;7.236;2023-09-18T02:17:36;9.03;;;6.67;;
870;SDS011;422;51.280;7.236;2023-09-18T02:20:04;7.90;;;5.87;;
870;SDS011;422;51.280;7.236;2023-09-18T02:22:36;8.87;;;5.70;;
870;SDS011;422;51.280;7.236;2023-09-18T02:25:05;9.57;;;5.90;;
870;SDS011;422;51.280;7.236;2023-09-18T02:27:33;9.33;;;5.87;;
870;SDS011;422;51.280;7.236;2023-09-18T02:30:00;8.80;;;5.57;;
870;SDS011;422;51.280;7.236;2023-09-18T02:32:29;7.47;;;5.90;;
870;SDS011;422;51.280;7.236;2023-09-18T02:34:56;7.80;;;6.63;;
870;SDS011;422;51.280;7.236;2023-09-18T02:37:24;12.27;;;6.07;;
870;SDS011;422;51.280;7.236;2023-09-18T02:39:51;6.60;;;6.00;;
870;SDS011;422;51.280;7.236;2023-09-18T02:42:18;6.93;;;6.10;;
870;SDS011;422;51.280;7.236;2023-09-18T02:44:45;8.63;;;6.17;;
870;SDS011;422;51.280;7.236;2023-09-18T02:47:15;6.53;;;5.80;;
870;SDS011;422;51.280;7.236;2023-09-18T02:49:44;8.40;;;5.77;;
870;SDS011;422;51.280;7.236;2023-09-18T02:52:11;8.53;;;6.13;;
870;SDS011;422;51.280;7.236;2023-09-18T02:54:39;8.30;;;6.40;;
870;SDS011;422;51.280;7.236;2023-09-18T02:57:06;10.70;;;5.87;;
870;SDS011;422;51.280;7.236;2023-09-18T02:59:35;8.57;;;5.53;;
870;SDS011;422;51.280;7.236;2023-09-18T03:02:03;6.20;;;5.00;;
870;SDS011;422;51.280;7.236;2023-09-18T03:04:31;8.60;;;5.50;;
870;SDS011;422;51.280;7.236;2023-09-18T03:07:00;9.50;;;4.57;;
870;SDS011;422;51.280;7.236;2023-09-18T03:09:27;8.57;;;5.67;;
870;SDS011;422;51.280;7.236;2023-09-18T03:11:55;6.27;;;5.40;;
870;SDS011;422;51.280;7.236;2023-09-18T03:14:23;8.30;;;5.67;;
870;SDS011;422;51.280;7.236;2023-09-18T03:16:50;7.33;;;5.33;;
870;SDS011;422;51.280;7.236;2023-09-18T03:19:17;6.17;;;5.20;;
870;SDS011;422;51.280;7.236;2023-09-18T03:21:47;8.90;;;5.73;;
870;SDS011;422;51.280;7.236;2023-09-18T03:24:15;10.40;;;5.60;;
870;SDS011;422;51.280;7.236;2023-09-18T03:26:43;6.57;;;4.70;;
870;SDS011;422;51.280;7.236;2023-09-18T03:29:10;6.73;;;5.80;;
870;SDS011;422;51.280;7.236;2023-09-18T03:31:37;6.20;;;5.60;;
870;SDS011;422;51.280;7.236;2023-09-18T03:34:04;13.57;;;6.13;;
870;SDS011;422;51.280;7.236;2023-09-18T03:36:32;5.90;;;5.20;;
870;SDS011;422;51.280;7.236;2023-09-18T03:39:00;8.63;;;5.33;;
870;SDS011;422;51.280;7.236;2023-09-18T03:41:29;8.93;;;5.67;;
870;SDS011;422;51.280;7.236;2023-09-18T03:43:59;8.40;;;5.47;;
870;SDS011;422;51.280;7.236;2023-09-18T03:46:26;8.07;;;5.20;;
870;SDS011;422;51.280;7.236;2023-09-18T03:48:53;9.77;;;5.90;;
870;SDS011;422;51.280;7.236;2023-09-18T03:51:22;9.03;;;5.53;;
870;SDS011;422;51.280;7.236;2023-09-18T03:53:50;11.70;;;6.00;;
870;SDS011;422;51.280;7.236;2023-09-18T03:56:17;9.70;;;6.00;;
870;SDS011;422;51.280;7.236;2023-09-18T03:58:46;12.20;;;6.50;;
870;SDS011;422;51.280;7.236;2023-09-18T04:01:14;13.10;;;6.20;;
870;SDS011;422;51.280;7.236;2023-09-18T04:03:42;12.93;;;5.70;;
870;SDS011;422;51.280;7.236;2023-09-18T04:06:09;11.10;;;6.30;;
870;SDS011;422;51.280;7.236;2023-09-18T04:08:36;14.37;;;5.77;;
870;SDS011;422;51.280;7.236;2023-09-18T04:11:04;9.00;;;6.70;;
870;SDS011;422;51.280;7.236;2023-09-18T04:13:34;9.07;;;6.20;;
870;SDS011;422;51.280;7.236;2023-09-18T04:16:04;9.93;;;6.60;;
870;SDS011;422;51.280;7.236;2023-09-18T04:18:33;9.83;;;6.43;;
870;SDS011;422;51.280;7.236;2023-09-18T04:21:00;8.53;;;5.87;;
870;SDS011;422;51.280;7.236;2023-09-18T04:23:27;8.63;;;6.33;;
870;SDS011;422;51.280;7.236;2023-09-18T04:25:55;8.47;;;6.23;;
870;SDS011;422;51.280;7.236;2023-09-18T04:28:23;16.07;;;6.77;;
870;SDS011;422;51.280;7.236;2023-09-18T04:30:51;9.83;;;6.90;;
870;SDS011;422;51.280;7.236;2023-09-18T04:33:19;13.47;;;6.00;;
870;SDS011;422;51.280;7.236;2023-09-18T04:35:47;12.40;;;6.67;;
870;SDS011;422;51.280;7.236;2023-09-18T04:38:15;10.33;;;6.13;;
870;SDS011;422;51.280;7.236;2023-09-18T04:40:44;11.00;;;5.80;;
870;SDS011;422;51.280;7.236;2023-09-18T04:43:11;12.40;;;6.00;;
870;SDS011;422;51.280;7.236;2023-09-18T04:45:39;7.30;;;5.33;;
870;SDS011;422;51.280;7.236;2023-09-18T04:48:07;9.63;;;6.33;;
870;SDS011;422;51.280;7.236;2023-09-18T04:50:36;15.57;;;6.40;;
870;SDS011;422;51.280;7.236;2023-09-18T04:53:03;10.30;;;6.10;;
870;SDS011;422;51.280;7.236;2023-09-18T04:55:31;9.80;;;6.50;;
870;SDS011;422;51.280;7.236;2023-09-18T04:57:58;12.60;;;6.03;;
870;SDS011;422;51.280;7.236;2023-09-18T05:00:26;17.47;;;6.00;;
870;SDS011;422;51.280;7.236;2023-09-18T05:02:55;14.23;;;7.20;;
870;SDS011;422;51.280;7.236;2023-09-18T05:05:25;13.00;;;6.37;;
870;SDS011;422;51.280;7.236;2023-09-18T05:07:54;11.30;;;5.57;;
870;SDS011;422;51.280;7.236;2023-09-18T05:10:21;11.67;;;6.43;;
870;SDS011;422;51.280;7.236;2023-09-18T05:12:48;13.03;;;6.93;;
870;SDS011;422;51.280;7.236;2023-09-18T05:15:23;15.93;;;6.40;;
870;SDS011;422;51.280;7.236;2023-09-18T05:17:52;9.57;;;6.00;;
870;SDS011;422;51.280;7.236;2023-09-18T05:20:22;10.50;;;5.80;;
870;SDS011;422;51.280;7.236;2023-09-18T05:22:50;10.03;;;6.20;;
870;SDS011;422;51.280;7.236;2023-09-18T05:25:20;10.77;;;6.93;;
870;SDS011;422;51.280;7.236;2023-09-18T05:27:48;12.33;;;6.03;;
870;SDS011;422;51.280;7.236;2023-09-18T05:30:24;13.53;;;6.20;;
870;SDS011;422;51.280;7.236;2023-09-18T05:32:54;9.77;;;6.10;;
870;SDS011;422;51.280;7.236;2023-09-18T05:35:22;11.80;;;6.50;;
870;SDS011;422;51.280;7.236;2023-09-18T05:37:49;12.53;;;6.40;;
870;SDS011;422;51.280;7.236;2023-09-18T05:40:17;13.40;;;5.63;;
870;SDS011;422;51.280;7.236;2023-09-18T05:42:46;13.13;;;6.20;;
870;SDS011;422;51.280;7.236;2023-09-18T05:45:13;17.63;;;5.73;;
870;SDS011;422;51.280;7.236;2023-09-18T05:47:41;13.57;;;6.00;;
870;SDS011;422;51.280;7.236;2023-09-18T05:50:09;14.93;;;6.37;;
870;SDS011;422;51.280;7.236;2023-09-18T05:52:40;12.60;;;6.00;;
870;SDS011;422;51.280;7.236;2023-09-18T05:55:07;11.23;;;5.30;;
870;SDS011;422;51.280;7.236;2023-09-18T05:57:36;11.67;;;5.60;;
870;SDS011;422;51.280;7.236;2023-09-18T06:00:04;11.23;;;5.93;;
870;SDS011;422;51.280;7.236;2023-09-18T06:02:32;10.93;;;6.43;;
870;SDS011;422;51.280;7.236;2023-09-18T06:05:00;13.20;;;5.37;;
870;SDS011;422;51.280;7.236;2023-09-18T06:07:31;10.53;;;5.40;;
870;SDS011;422;51.280;7.236;2023-09-18T06:09:59;10.00;;;6.13;;
870;SDS011;422;51.280;7.236;2023-09-18T06:12:26;9.40;;;5.80;;
870;SDS011;422;51.280;7.236;2023-09-18T06:14:55;13.07;;;6.50;;
870;SDS011;422;51.280;7.236;2023-09-18T06:17:24;8.87;;;5.07;;
870;SDS011;422;51.280;7.236;2023-09-18T06:19:51;7.93;;;5.77;;
870;SDS011;422;51.280;7.236;2023-09-18T06:22:19;8.50;;;5.10;;
870;SDS011;422;51.280;7.236;2023-09-18T06:24:46;12.37;;;5.87;;
870;SDS011;422;51.280;7.236;2023-09-18T06:27:14;11.17;;;5.13;;
870;SDS011;422;51.280;7.236;2023-09-18T06:29:41;11.00;;;5.00;;
870;SDS011;422;51.280;7.236;2023-09-18T06:32:10;11.40;;;6.47;;
870;SDS011;422;51.280;7.236;2023-09-18T06:34:37;7.17;;;5.07;;
870;SDS011;422;51.280;7.236;2023-09-18T06:37:08;14.90;;;5.47;;
870;SDS011;422;51.280;7.236;2023-09-18T06:39:37;7.67;;;4.97;;
870;SDS011;422;51.280;7.236;2023-09-18T06:42:06;8.73;;;5.50;;
870;SDS011;422;51.280;7.236;2023-09-18T06:44:34;11.43;;;6.10;;
870;SDS011;422;51.280;7.236;2023-09-18T06:47:01;10.33;;;5.53;;
870;SDS011;422;51.280;7.236;2023-09-18T06:49:30;6.70;;;4.90;;
870;SDS011;422;51.280;7.236;2023-09-18T06:51:58;9.80;;;4.83;;
870;SDS011;422;51.280;7.236;2023-09-18T06:54:25;9.10;;;4.73;;
870;SDS011;422;51.280;7.236;2023-09-18T06:56:52;8.30;;;4.73;;
870;SDS011;422;51.280;7.236;2023-09-18T06:59:19;9.33;;;4.60;;
870;SDS011;422;51.280;7.236;2023-09-18T07:01:46;8.37;;;4.80;;
870;SDS011;422;51.280;7.236;2023-09-18T07:04:14;7.50;;;4.30;;
870;SDS011;422;51.280;7.236;2023-09-18T07:06:42;8.83;;;5.33;;
870;SDS011;422;51.280;7.236;2023-09-18T07:09:11;12.50;;;4.53;;
870;SDS011;422;51.280;7.236;2023-09-18T07:11:39;8.87;;;4.80;;
870;SDS011;422;51.280;7.236;2023-09-18T07:14:06;8.23;;;4.27;;
870;SDS011;422;51.280;7.236;2023-09-18T07:16:36;9.13;;;4.47;;
870;SDS011;422;51.280;7.236;2023-09-18T07:19:04;10.83;;;4.87;;
870;SDS011;422;51.280;7.236;2023-09-18T07:21:32;6.90;;;4.30;;
870;SDS011;422;51.280;7.236;2023-09-18T07:24:02;8.10;;;4.10;;
870;SDS011;422;51.280;7.236;2023-09-18T07:26:29;9.37;;;4.17;;
870;SDS011;422;51.280;7.236;2023-09-18T07:28:57;6.67;;;3.83;;
870;SDS011;422;51.280;7.236;2023-09-18T07:31:24;7.27;;;4.47;;
870;SDS011;422;51.280;7.236;2023-09-18T07:33:51;7.43;;;3.97;;
870;SDS011;422;51.280;7.236;2023-09-18T07:36:19;9.00;;;4.43;;
870;SDS011;422;51.280;7.236;2023-09-18T07:38:46;6.70;;;4.20;;
870;SDS011;422;51.280;7.236;2023-09-18T07:41:15;6.77;;;4.07;;
870;SDS011;422;51.280;7.236;2023-09-18T07:43:42;5.97;;;3.70;;
870;SDS011;422;51.280;7.236;2023-09-18T07:46:09;8.07;;;4.00;;
870;SDS011;422;51.280;7.236;2023-09-18T07:48:36;6.30;;;3.90;;
870;SDS011;422;51.280;7.236;2023-09-18T07:51:04;5.20;;;3.80;;
870;SDS011;422;51.280;7.236;2023-09-18T07:53:31;10.10;;;3.83;;
870;SDS011;422;51.280;7.236;2023-09-18T07:55:58;6.20;;;4.23;;
870;SDS011;422;51.280;7.236;2023-09-18T07:58:28;9.77;;;4.60;;
870;SDS011;422;51.280;7.236;2023-09-18T08:00:55;8.17;;;4.13;;
870;SDS011;422;51.280;7.236;2023-09-18T08:03:23;7.07;;;3.47;;
870;SDS011;422;51.280;7.236;2023-09-18T08:05:51;7.10;;;4.00;;
870;SDS011;422;51.280;7.236;2023-09-18T08:08:19;5.40;;;3.33;;
870;SDS011;422;51.280;7.236;2023-09-18T08:10:48;11.50;;;4.63;;
870;SDS011;422;51.280;7.236;2023-09-18T08:13:16;8.40;;;3.53;;
870;SDS011;422;51.280;7.236;2023-09-18T08:15:46;8.27;;;3.90;;
870;SDS011;422;51.280;7.236;2023-09-18T08:18:13;5.97;;;4.00;;
870;SDS011;422;51.280;7.236;2023-09-18T08:20:41;9.83;;;3.40;;
870;SDS011;422;51.280;7.236;2023-09-18T08:23:09;6.87;;;3.03;;
870;SDS011;422;51.280;7.236;2023-09-18T08:25:36;5.60;;;3.27;;
870;SDS011;422;51.280;7.236;2023-09-18T08:28:05;6.70;;;3.50;;
870;SDS011;422;51.280;7.236;2023-09-18T08:30:32;5.53;;;3.30;;
870;SDS011;422;51.280;7.236;2023-09-18T08:33:02;6.17;;;3.70;;
870;SDS011;422;51.280;7.236;2023-09-18T08:35:34;4.73;;;3.07;;
870;SDS011;422;51.280;7.236;2023-09-18T08:38:02;5.30;;;3.40;;
870;SDS011;422;51.280;7.236;2023-09-18T08:40:29;7.03;;;3.27;;
870;SDS011;422;51.280;7.236;2023-09-18T08:42:57;8.40;;;3.97;;
870;SDS011;422;51.280;7.236;2023-09-18T08:45:27;7.00;;;3.60;;
870;SDS011;422;51.280;7.236;2023-09-18T08:47:58;6.97;;;4.10;;
870;SDS011;422;51.280;7.236;2023-09-18T08:50:28;8.53;;;3.10;;
870;SDS011;422;51.280;7.236;2023-09-18T08:52:56;6.60;;;3.30;;
870;SDS011;422;51.280;7.236;2023-09-18T08:55:24;6.13;;;3.23;;
870;SDS011;422;51.280;7.236;2023-09-18T08:57:51;4.20;;;3.13;;
870;SDS011;422;51.280;7.236;2023-09-18T09:00:19;6.93;;;3.40;;
870;SDS011;422;51.280;7.236;2023-09-18T09:02:47;4.10;;;2.83;;
870;SDS011;422;51.280;7.236;2023-09-18T09:05:16;4.20;;;2.93;;
870;SDS011;422;51.280;7.236;2023-09-18T09:07:45;5.63;;;3.10;;
870;SDS011;422;51.280;7.236;2023-09-18T09:10:13;8.10;;;3.70;;
870;SDS011;422;51.280;7.236;2023-09-18T09:12:50;6.20;;;3.37;;
870;SDS011;422;51.280;7.236;2023-09-18T09:15:20;3.70;;;3.00;;
870;SDS011;422;51.280;7.236;2023-09-18T09:17:48;3.80;;;3.00;;
870;SDS011;422;51.280;7.236;2023-09-18T09:20:16;3.73;;;2.93;;
870;SDS011;422;51.280;7.236;2023-09-18T09:22:46;7.60;;;3.40;;
870;SDS011;422;51.280;7.236;2023-09-18T09:25:22;7.30;;;3.30;;
870;SDS011;422;51.280;7.236;2023-09-18T09:27:51;4.20;;;2.93;;
870;SDS011;422;51.280;7.236;2023-09-18T09:30:20;3.97;;;3.00;;
870;SDS011;422;51.280;7.236;2023-09-18T09:32:49;5.20;;;2.97;;
870;SDS011;422;51.280;7.236;2023-09-18T09:35:21;5.50;;;2.70;;
870;SDS011;422;51.280;7.236;2023-09-18T09:37:50;4.90;;;3.20;;
870;SDS011;422;51.280;7.236;2023-09-18T09:40:19;5.20;;;3.33;;
870;SDS011;422;51.280;7.236;2023-09-18T09:42:47;3.40;;;2.77;;
870;SDS011;422;51.280;7.236;2023-09-18T09:45:15;6.70;;;4.23;;
870;SDS011;422;51.280;7.236;2023-09-18T09:47:43;5.67;;;3.47;;
870;SDS011;422;51.280;7.236;2023-09-18T09:50:12;5.37;;;2.83;;
870;SDS011;422;51.280;7.236;2023-09-18T09:52:41;8.00;;;3.23;;
870;SDS011;422;51.280;7.236;2023-09-18T09:55:21;4.77;;;3.50;;
870;SDS011;422;51.280;7.236;2023-09-18T09:57:51;6.07;;;3.00;;
870;SDS011;422;51.280;7.236;2023-09-18T10:00:22;7.00;;;3.00;;
870;SDS011;422;51.280;7.236;2023-09-18T10:02:57;3.90;;;3.07;;
870;SDS011;422;51.280;7.236;2023-09-18T10:05:27;4.77;;;2.80;;
870;SDS011;422;51.280;7.236;2023-09-18T10:08:01;5.33;;;2.77;;
870;SDS011;422;51.280;7.236;2023-09-18T10:10:35;3.93;;;2.83;;
870;SDS011;422;51.280;7.236;2023-09-18T10:13:09;3.73;;;2.20;;
870;SDS011;422;51.280;7.236;2023-09-18T10:15:38;4.20;;;2.70;;
870;SDS011;422;51.280;7.236;2023-09-18T10:18:17;4.77;;;2.60;;
870;SDS011;422;51.280;7.236;2023-09-18T10:20:49;4.93;;;2.90;;
870;SDS011;422;51.280;7.236;2023-09-18T10:23:27;3.93;;;2.80;;
870;SDS011;422;51.280;7.236;2023-09-18T10:26:07;6.30;;;3.53;;
870;SDS011;422;51.280;7.236;2023-09-18T10:28:36;4.37;;;2.70;;
870;SDS011;422;51.280;7.236;2023-09-18T10:31:04;4.50;;;3.07;;
870;SDS011;422;51.280;7.236;2023-09-18T10:33:33;3.53;;;3.00;;
870;SDS011;422;51.280;7.236;2023-09-18T10:36:01;4.00;;;2.97;;
870;SDS011;422;51.280;7.236;2023-09-18T10:38:30;3.83;;;2.40;;
870;SDS011;422;51.280;7.236;2023-09-18T10:40:58;4.23;;;2.40;;
870;SDS011;422;51.280;7.236;2023-09-18T10:43:29;4.23;;;3.50;;
870;SDS011;422;51.280;7.236;2023-09-18T10:45:56;4.70;;;2.63;;
870;SDS011;422;51.280;7.236;2023-09-18T10:48:24;4.17;;;2.90;;
870;SDS011;422;51.280;7.236;2023-09-18T10:50:53;6.07;;;3.23;;
870;SDS011;422;51.280;7.236;2023-09-18T10:53:20;5.73;;;2.73;;
870;SDS011;422;51.280;7.236;2023-09-18T10:55:48;8.10;;;2.90;;
870;SDS011;422;51.280;7.236;2023-09-18T10:58:26;4.40;;;3.10;;
870;SDS011;422;51.280;7.236;2023-09-18T11:00:55;4.33;;;3.03;;
870;SDS011;422;51.280;7.236;2023-09-18T11:03:23;4.30;;;2.90;;
870;SDS011;422;51.280;7.236;2023-09-18T11:06:01;4.93;;;2.70;;
870;SDS011;422;51.280;7.236;2023-09-18T11:08:31;4.70;;;2.77;;
870;SDS011;422;51.280;7.236;2023-09-18T11:11:01;3.73;;;2.70;;
870;SDS011;422;51.280;7.236;2023-09-18T11:13:38;3.33;;;2.57;;
870;SDS011;422;51.280;7.236;2023-09-18T11:16:14;7.43;;;3.10;;
870;SDS011;422;51.280;7.236;2023-09-18T11:19:05;4.90;;;3.00;;
870;SDS011;422;51.280;7.236;2023-09-18T11:21:35;3.93;;;2.77;;
870;SDS011;422;51.280;7.236;2023-09-18T11:24:04;3.67;;;2.80;;
870;SDS011;422;51.280;7.236;2023-09-18T11:26:36;3.60;;;2.73;;
870;SDS011;422;51.280;7.236;2023-09-18T11:29:08;6.50;;;2.87;;
870;SDS011;422;51.280;7.236;2023-09-18T11:31:44;3.13;;;2.30;;
870;SDS011;422;51.280;7.236;2023-09-18T11:34:13;5.93;;;2.70;;
870;SDS011;422;51.280;7.236;2023-09-18T11:36:41;5.80;;;3.27;;
870;SDS011;422;51.280;7.236;2023-09-18T11:39:08;3.50;;;3.07;;
870;SDS011;422;51.280;7.236;2023-09-18T11:41:38;4.93;;;3.00;;
870;SDS011;422;51.280;7.236;2023-09-18T11:47:02;3.80;;;2.33;;
870;SDS011;422;51.280;7.236;2023-09-18T11:49:33;3.23;;;2.37;;
870;SDS011;422;51.280;7.236;2023-09-18T11:52:01;4.60;;;2.50;;
870;SDS011;422;51.280;7.236;2023-09-18T11:54:29;3.00;;;2.70;;
870;SDS011;422;51.280;7.236;2023-09-18T11:57:02;4.03;;;2.67;;
870;SDS011;422;51.280;7.236;2023-09-18T11:59:36;3.03;;;2.53;;
870;SDS011;422;51.280;7.236;2023-09-18T12:02:04;3.70;;;2.93;;
870;SDS011;422;51.280;7.236;2023-09-18T12:04:33;3.20;;;2.60;;
870;SDS011;422;51.280;7.236;2023-09-18T12:07:01;4.03;;;2.90;;
870;SDS011;422;51.280;7.236;2023-09-18T12:09:30;3.40;;;2.93;;
870;SDS011;422;51.280;7.236;2023-09-18T12:11:57;2.90;;;2.60;;
870;SDS011;422;51.280;7.236;2023-09-18T12:14:30;3.80;;;2.90;;
870;SDS011;422;51.280;7.236;2023-09-18T12:16:59;5.40;;;2.70;;
870;SDS011;422;51.280;7.236;2023-09-18T12:19:28;2.33;;;2.13;;
870;SDS011;422;51.280;7.236;2023-09-18T12:21:55;8.70;;;2.87;;
870;SDS011;422;51.280;7.236;2023-09-18T12:24:23;5.53;;;2.90;;
870;SDS011;422;51.280;7.236;2023-09-18T12:26:50;3.83;;;2.70;;
870;SDS011;422;51.280;7.236;2023-09-18T12:29:19;4.67;;;2.80;;
870;SDS011;422;51.280;7.236;2023-09-18T12:31:46;5.53;;;2.70;;
870;SDS011;422;51.280;7.236;2023-09-18T12:34:17;7.10;;;3.10;;
870;SDS011;422;51.280;7.236;2023-09-18T12:36:46;4.13;;;3.10;;
870;SDS011;422;51.280;7.236;2023-09-18T12:39:14;2.83;;;2.27;;
870;SDS011;422;51.280;7.236;2023-09-18T12:41:42;4.13;;;2.90;;
870;SDS011;422;51.280;7.236;2023-09-18T12:44:10;2.60;;;2.40;;
870;SDS011;422;51.280;7.236;2023-09-18T12:46:39;3.90;;;2.60;;
870;SDS011;422;51.280;7.236;2023-09-18T12:49:21;3.23;;;2.73;;
870;SDS011;422;51.280;7.236;2023-09-18T12:51:56;4.10;;;2.40;;
870;SDS011;422;51.280;7.236;2023-09-18T12:54:36;4.10;;;2.73;;
870;SDS011;422;51.280;7.236;2023-09-18T12:57:04;6.00;;;2.90;;
870;SDS011;422;51.280;7.236;2023-09-18T12:59:32;2.90;;;2.60;;
870;SDS011;422;51.280;7.236;2023-09-18T13:02:01;2.80;;;2.40;;
870;SDS011;422;51.280;7.236;2023-09-18T13:04:31;3.00;;;2.67;;
870;SDS011;422;51.280;7.236;2023-09-18T13:07:09;4.20;;;3.20;;
870;SDS011;422;51.280;7.236;2023-09-18T13:09:37;3.37;;;2.80;;
870;SDS011;422;51.280;7.236;2023-09-18T13:12:05;4.57;;;2.80;;
870;SDS011;422;51.280;7.236;2023-09-18T13:17:36;5.17;;;3.17;;
870;SDS011;422;51.280;7.236;2023-09-18T13:20:11;3.93;;;3.47;;
870;SDS011;422;51.280;7.236;2023-09-18T13:22:41;3.43;;;3.13;;
870;SDS011;422;51.280;7.236;2023-09-18T13:25:08;7.90;;;2.60;;
870;SDS011;422;51.280;7.236;2023-09-18T13:27:37;3.43;;;2.50;;
870;SDS011;422;51.280;7.236;2023-09-18T13:30:05;3.87;;;2.67;;
870;SDS011;422;51.280;7.236;2023-09-18T13:32:35;3.83;;;2.83;;
870;SDS011;422;51.280;7.236;2023-09-18T13:35:03;3.37;;;3.07;;
870;SDS011;422;51.280;7.236;2023-09-18T13:37:33;3.60;;;2.90;;
870;SDS011;422;51.280;7.236;2023-09-18T13:40:01;4.03;;;2.70;;
870;SDS011;422;51.280;7.236;2023-09-18T13:42:32;3.73;;;2.60;;
870;SDS011;422;51.280;7.236;2023-09-18T13:44:59;3.20;;;2.90;;
870;SDS011;422;51.280;7.236;2023-09-18T13:47:27;3.47;;;2.83;;
870;SDS011;422;51.280;7.236;2023-09-18T13:49:54;2.90;;;2.60;;
870;SDS011;422;51.280;7.236;2023-09-18T13:52:25;3.17;;;2.67;;
870;SDS011;422;51.280;7.236;2023-09-18T13:54:54;3.27;;;2.97;;
870;SDS011;422;51.280;7.236;2023-09-18T13:57:21;3.13;;;2.47;;
870;SDS011;422;51.280;7.236;2023-09-18T13:59:49;3.93;;;2.67;;
870;SDS011;422;51.280;7.236;2023-09-18T14:02:17;2.53;;;2.33;;
870;SDS011;422;51.280;7.236;2023-09-18T14:04:45;2.93;;;2.43;;
870;SDS011;422;51.280;7.236;2023-09-18T14:07:12;5.23;;;2.97;;
870;SDS011;422;51.280;7.236;2023-09-18T14:09:39;4.90;;;3.57;;
870;SDS011;422;51.280;7.236;2023-09-18T14:12:08;4.77;;;2.90;;
870;SDS011;422;51.280;7.236;2023-09-18T14:14:36;3.40;;;2.37;;
870;SDS011;422;51.280;7.236;2023-09-18T14:17:05;2.97;;;2.70;;
870;SDS011;422;51.280;7.236;2023-09-18T14:19:32;4.03;;;3.10;;
870;SDS011;422;51.280;7.236;2023-09-18T14:21:59;3.73;;;3.43;;
870;SDS011;422;51.280;7.236;2023-09-18T14:24:31;4.20;;;3.10;;
870;SDS011;422;51.280;7.236;2023-09-18T14:27:00;5.23;;;4.03;;
870;SDS011;422;51.280;7.236;2023-09-18T14:29:29;3.37;;;2.70;;
870;SDS011;422;51.280;7.236;2023-09-18T14:31:57;3.33;;;3.00;;
870;SDS011;422;51.280;7.236;2023-09-18T14:34:24;3.43;;;2.77;;
870;SDS011;422;51.280;7.236;2023-09-18T14:36:51;4.00;;;3.10;;
870;SDS011;422;51.280;7.236;2023-09-18T14:39:19;4.53;;;2.63;;
870;SDS011;422;51.280;7.236;2023-09-18T14:41:46;4.20;;;2.90;;
870;SDS011;422;51.280;7.236;2023-09-18T14:44:14;3.67;;;3.00;;
870;SDS011;422;51.280;7.236;2023-09-18T14:46:43;3.87;;;3.23;;
870;SDS011;422;51.280;7.236;2023-09-18T14:49:10;4.20;;;2.97;;
870;SDS011;422;51.280;7.236;2023-09-18T14:51:37;6.53;;;3.00;;
870;SDS011;422;51.280;7.236;2023-09-18T14:54:06;3.03;;;2.73;;
870;SDS011;422;51.280;7.236;2023-09-18T14:56:34;4.83;;;2.90;;
870;SDS011;422;51.280;7.236;2023-09-18T14:59:02;4.50;;;2.90;;
870;SDS011;422;51.280;7.236;2023-09-18T15:01:30;3.23;;;2.90;;
870;SDS011;422;51.280;7.236;2023-09-18T15:03:58;3.00;;;2.70;;
870;SDS011;422;51.280;7.236;2023-09-18T15:06:26;3.20;;;2.83;;
870;SDS011;422;51.280;7.236;2023-09-18T15:08:54;3.40;;;3.10;;
870;SDS011;422;51.280;7.236;2023-09-18T15:11:21;4.10;;;2.80;;
870;SDS011;422;51.280;7.236;2023-09-18T15:13:49;3.20;;;2.80;;
870;SDS011;422;51.280;7.236;2023-09-18T15:16:16;3.00;;;2.70;;
870;SDS011;422;51.280;7.236;2023-09-18T15:18:43;6.73;;;2.83;;
870;SDS011;422;51.280;7.236;2023-09-18T15:21:16;6.90;;;2.70;;
870;SDS011;422;51.280;7.236;2023-09-18T15:23:45;3.27;;;2.90;;
870;SDS011;422;51.280;7.236;2023-09-18T15:26:14;3.93;;;2.80;;
870;SDS011;422;51.280;7.236;2023-09-18T15:28:42;3.53;;;3.07;;
870;SDS011;422;51.280;7.236;2023-09-18T15:31:10;3.90;;;2.70;;
870;SDS011;422;51.280;7.236;2023-09-18T15:33:37;3.37;;;3.07;;
870;SDS011;422;51.280;7.236;2023-09-18T15:36:05;4.37;;;3.17;;
870;SDS011;422;51.280;7.236;2023-09-18T15:38:35;3.63;;;3.10;;
870;SDS011;422;51.280;7.236;2023-09-18T15:41:03;4.77;;;2.80;;
870;SDS011;422;51.280;7.236;2023-09-18T15:43:30;4.00;;;2.40;;
870;SDS011;422;51.280;7.236;2023-09-18T15:45:59;3.90;;;2.50;;
870;SDS011;422;51.280;7.236;2023-09-18T15:48:27;3.43;;;2.77;;
870;SDS011;422;51.280;7.236;2023-09-18T15:50:54;3.50;;;2.63;;
870;SDS011;422;51.280;7.236;2023-09-18T15:53:22;2.63;;;2.43;;
870;SDS011;422;51.280;7.236;2023-09-18T15:55:51;3.43;;;2.47;;
870;SDS011;422;51.280;7.236;2023-09-18T15:58:18;2.80;;;2.60;;